createdAt,value
2023-01-10T00:00:53.889Z,7.00
2023-01-10T00:03:22.512Z,7.00
2023-01-10T00:05:52.549Z,7.00
2023-01-10T00:08:21.409Z,7.00
2023-01-10T00:10:50.321Z,7.00
2023-01-10T00:13:24.616Z,6.90
2023-01-10T00:15:53.930Z,6.90
2023-01-10T00:18:22.929Z,6.90
2023-01-10T00:20:52.936Z,6.90
2023-01-10T00:23:24.763Z,6.90
2023-01-10T00:25:53.312Z,6.90
2023-01-10T00:28:21.963Z,6.90
2023-01-10T00:30:59.073Z,6.90
2023-01-10T00:33:27.678Z,6.90
2023-01-10T00:35:57.667Z,6.90
2023-01-10T00:38:26.473Z,6.80
2023-01-10T00:40:55.186Z,6.80
2023-01-10T00:43:41.205Z,6.90
2023-01-10T00:46:09.967Z,6.90
2023-01-10T00:48:41.353Z,6.90
2023-01-10T00:51:11.321Z,6.90
2023-01-10T00:53:39.873Z,6.90
2023-01-10T00:56:08.940Z,6.90
2023-01-10T00:58:37.533Z,6.90
2023-01-10T01:01:06.379Z,6.90
2023-01-10T01:03:35.099Z,6.90
2023-01-10T01:06:06.442Z,6.90
2023-01-10T01:08:36.741Z,6.90
2023-01-10T01:11:05.409Z,6.90
2023-01-10T01:13:34.081Z,6.90
2023-01-10T01:16:02.745Z,6.90
2023-01-10T01:18:31.665Z,6.90
2023-01-10T01:21:03.672Z,7.00
2023-01-10T01:23:34.629Z,7.00
2023-01-10T01:26:06.403Z,6.90
2023-01-10T01:28:35.345Z,7.00
2023-01-10T01:31:10.300Z,6.90
2023-01-10T01:33:39.151Z,7.00
2023-01-10T01:36:11.172Z,7.00
2023-01-10T01:38:40.090Z,6.90
2023-01-10T01:41:30.443Z,6.90
2023-01-10T01:44:04.452Z,6.90
2023-01-10T01:46:34.551Z,6.90
2023-01-10T01:49:06.138Z,6.90
2023-01-10T01:51:36.071Z,6.90
2023-01-10T01:54:08.689Z,6.90
2023-01-10T01:56:44.192Z,6.90
2023-01-10T01:59:17.490Z,6.90
2023-01-10T02:01:49.275Z,6.90
2023-01-10T02:04:21.967Z,6.90
2023-01-10T02:06:53.636Z,6.90
2023-01-10T02:09:29.445Z,6.80
2023-01-10T02:11:59.409Z,6.90
2023-01-10T02:14:28.405Z,6.90
2023-01-10T02:16:56.987Z,6.90
2023-01-10T02:19:35.518Z,6.90
2023-01-10T02:22:55.174Z,6.90
2023-01-10T02:26:06.516Z,6.90
2023-01-10T02:29:10.942Z,6.90
2023-01-10T02:32:03.314Z,6.90
2023-01-10T02:34:39.563Z,6.90
2023-01-10T02:37:14.922Z,6.90
2023-01-10T02:39:52.545Z,6.90
2023-01-10T02:42:27.361Z,6.90
2023-01-10T02:45:02.059Z,6.80
2023-01-10T02:47:38.552Z,6.80
2023-01-10T02:50:31.801Z,6.80
2023-01-10T02:53:03.472Z,6.80
2023-01-10T02:55:43.493Z,6.90
2023-01-10T02:58:22.778Z,6.90
2023-01-10T03:00:59.177Z,6.90
2023-01-10T03:03:37.360Z,6.90
2023-01-10T03:06:20.099Z,6.90
2023-01-10T03:08:57.865Z,6.90
2023-01-10T03:11:44.824Z,6.90
2023-01-10T03:14:20.314Z,6.80
2023-01-10T03:16:54.063Z,6.80
2023-01-10T03:19:28.625Z,6.80
2023-01-10T03:22:00.948Z,6.80
2023-01-10T03:24:34.270Z,6.80
2023-01-10T03:27:09.085Z,6.80
2023-01-10T03:29:44.886Z,6.80
2023-01-10T03:32:17.268Z,6.90
2023-01-10T03:34:48.633Z,6.80
2023-01-10T03:37:25.783Z,6.80
2023-01-10T03:40:00.512Z,6.90
2023-01-10T03:42:57.975Z,6.90
2023-01-10T03:45:33.865Z,6.80
2023-01-10T03:48:06.808Z,6.80
2023-01-10T03:50:39.101Z,6.80
2023-01-10T03:53:07.974Z,6.80
2023-01-10T03:55:37.769Z,6.70
2023-01-10T03:58:07.570Z,6.70
2023-01-10T04:00:36.127Z,6.80
2023-01-10T04:03:04.844Z,6.80
2023-01-10T04:05:33.384Z,6.80
2023-01-10T04:08:04.840Z,6.80
2023-01-10T04:10:33.504Z,6.70
2023-01-10T04:13:02.800Z,6.80
2023-01-10T04:15:31.795Z,6.80
2023-01-10T04:18:00.392Z,6.80
2023-01-10T04:20:28.983Z,6.80
2023-01-10T04:22:58.687Z,6.80
2023-01-10T04:25:29.841Z,6.80
2023-01-10T04:27:59.279Z,6.70
2023-01-10T04:30:28.128Z,6.70
2023-01-10T04:32:56.800Z,6.80
2023-01-10T04:35:25.413Z,6.80
2023-01-10T04:37:53.971Z,6.80
2023-01-10T04:40:23.728Z,6.80
2023-01-10T04:42:53.925Z,6.80
2023-01-10T04:45:22.591Z,6.80
2023-01-10T04:47:52.341Z,6.80
2023-01-10T04:50:21.224Z,6.80
2023-01-10T04:52:49.852Z,6.80
2023-01-10T04:55:18.572Z,6.80
2023-01-10T04:57:47.653Z,6.70
2023-01-10T05:00:18.415Z,6.80
2023-01-10T05:02:47.236Z,6.70
2023-01-10T05:05:16.739Z,6.80
2023-01-10T05:07:48.233Z,6.80
2023-01-10T05:10:17.235Z,6.90
2023-01-10T05:12:46.748Z,6.80
2023-01-10T05:15:17.044Z,6.80
2023-01-10T05:17:45.688Z,6.80
2023-01-10T05:20:14.761Z,6.80
2023-01-10T05:22:43.459Z,6.80
2023-01-10T05:25:12.127Z,6.80
2023-01-10T05:27:43.975Z,6.80
2023-01-10T05:30:14.210Z,6.70
2023-01-10T05:32:44.738Z,6.80
2023-01-10T05:35:15.236Z,6.80
2023-01-10T05:37:43.975Z,6.80
2023-01-10T05:40:13.674Z,6.80
2023-01-10T05:42:43.230Z,6.80
2023-01-10T05:45:12.869Z,6.70
2023-01-10T05:47:42.180Z,6.80
2023-01-10T05:50:13.920Z,6.90
2023-01-10T05:52:44.286Z,6.90
2023-01-10T05:55:13.810Z,6.80
2023-01-10T05:57:42.418Z,6.80
2023-01-10T06:00:12.905Z,6.80
2023-01-10T06:02:41.737Z,6.90
2023-01-10T06:05:12.205Z,6.90
2023-01-10T06:07:43.795Z,6.80
2023-01-10T06:10:12.909Z,6.70
2023-01-10T06:12:41.930Z,6.80
2023-01-10T06:15:11.584Z,6.70
2023-01-10T06:17:40.169Z,6.90
2023-01-10T06:20:26.313Z,6.80
2023-01-10T06:22:55.834Z,6.70
2023-01-10T06:25:24.672Z,6.70
2023-01-10T06:27:53.587Z,6.70
2023-01-10T06:30:22.467Z,6.70
2023-01-10T06:32:51.284Z,6.70
2023-01-10T06:35:21.739Z,6.70
2023-01-10T06:37:50.512Z,6.70
2023-01-10T06:40:19.330Z,6.70
2023-01-10T06:42:48.285Z,6.70
2023-01-10T06:45:17.150Z,6.60
2023-01-10T06:47:46.009Z,6.60
2023-01-10T06:50:15.577Z,6.70
2023-01-10T06:52:45.606Z,6.70
2023-01-10T06:55:14.321Z,6.80
2023-01-10T06:57:42.946Z,6.70
2023-01-10T07:00:12.709Z,6.70
2023-01-10T07:02:41.602Z,6.70
2023-01-10T07:05:11.633Z,6.70
2023-01-10T07:07:40.576Z,6.80
2023-01-10T07:10:12.231Z,6.80
2023-01-10T07:12:40.871Z,6.70
2023-01-10T07:15:13.118Z,6.70
2023-01-10T07:17:41.865Z,6.70
2023-01-10T07:20:12.123Z,6.70
2023-01-10T07:22:40.710Z,6.70
2023-01-10T07:25:11.407Z,6.80
2023-01-10T07:27:43.459Z,6.90
2023-01-10T07:30:13.141Z,6.80
2023-01-10T07:32:41.701Z,6.80
2023-01-10T07:35:11.035Z,6.80
2023-01-10T07:37:39.626Z,6.80
2023-01-10T07:40:11.490Z,6.90
2023-01-10T07:42:43.750Z,6.80
2023-01-10T07:45:13.060Z,6.80
2023-01-10T07:47:41.818Z,6.80
2023-01-10T07:50:11.478Z,6.80
2023-01-10T07:52:40.120Z,6.90
2023-01-10T07:55:11.004Z,6.90
2023-01-10T07:57:39.503Z,6.90
2023-01-10T08:00:09.630Z,6.90
2023-01-10T08:02:38.343Z,6.80
2023-01-10T08:05:07.556Z,6.90
2023-01-10T08:07:36.164Z,6.90
2023-01-10T08:10:05.256Z,6.90
2023-01-10T08:12:35.608Z,6.90
2023-01-10T08:15:04.269Z,6.90
2023-01-10T08:17:35.463Z,6.90
2023-01-10T08:20:15.723Z,6.90
2023-01-10T08:22:44.388Z,6.90
2023-01-10T08:25:16.393Z,6.90
2023-01-10T08:27:46.513Z,7.00
2023-01-10T08:30:16.328Z,7.00
2023-01-10T08:32:45.296Z,6.90
2023-01-10T08:35:14.199Z,6.90
2023-01-10T08:37:42.792Z,7.00
2023-01-10T08:40:12.800Z,6.90
2023-01-10T08:42:41.458Z,6.90
2023-01-10T08:45:21.028Z,7.00
2023-01-10T08:47:49.622Z,7.00
2023-01-10T08:50:18.565Z,7.10
2023-01-10T08:52:47.208Z,7.00
2023-01-10T08:55:15.843Z,7.00
2023-01-10T08:57:44.734Z,7.00
2023-01-10T09:00:15.980Z,6.90
2023-01-10T09:02:45.377Z,6.90
2023-01-10T09:05:26.277Z,6.90
2023-01-10T09:08:00.319Z,6.90
2023-01-10T09:10:29.586Z,7.00
2023-01-10T09:13:01.682Z,7.00
2023-01-10T09:15:33.858Z,7.00
2023-01-10T09:18:04.978Z,7.00
2023-01-10T09:20:35.219Z,7.00
2023-01-10T09:23:08.622Z,7.00
2023-01-10T09:25:39.091Z,7.00
2023-01-10T09:28:08.506Z,7.00
2023-01-10T09:30:39.571Z,7.00
2023-01-10T09:33:08.864Z,7.00
2023-01-10T09:35:39.295Z,6.90
2023-01-10T09:38:36.614Z,6.90
2023-01-10T09:41:21.712Z,7.00
2023-01-10T09:44:02.814Z,7.00
2023-01-10T09:46:44.240Z,7.00
2023-01-10T09:49:24.333Z,7.10
2023-01-10T09:51:56.282Z,7.00
2023-01-10T09:54:29.803Z,7.00
2023-01-10T09:57:01.159Z,7.10
2023-01-10T09:59:39.287Z,7.10
2023-01-10T10:02:26.923Z,7.10
2023-01-10T10:05:13.321Z,7.10
2023-01-10T10:07:42.709Z,7.20
2023-01-10T10:10:17.913Z,7.10
2023-01-10T10:12:56.813Z,7.10
2023-01-10T10:15:33.846Z,7.20
2023-01-10T10:18:16.856Z,7.20
2023-01-10T10:20:55.949Z,7.20
2023-01-10T10:23:55.566Z,7.20
2023-01-10T10:26:30.744Z,7.40
2023-01-10T10:29:24.080Z,7.30
2023-01-10T10:32:17.341Z,7.30
2023-01-10T10:34:51.159Z,7.30
2023-01-10T10:37:23.242Z,7.30
2023-01-10T10:39:55.693Z,7.20
2023-01-10T10:42:29.630Z,7.20
2023-01-10T10:45:03.324Z,7.20
2023-01-10T10:47:35.694Z,7.10
2023-01-10T10:50:18.190Z,7.10
2023-01-10T10:52:47.949Z,7.20
2023-01-10T10:55:19.107Z,7.20
2023-01-10T10:57:59.959Z,7.20
2023-01-10T11:00:30.501Z,7.20
2023-01-10T11:03:05.168Z,7.20
2023-01-10T11:05:41.121Z,7.20
2023-01-10T11:08:13.028Z,7.20
2023-01-10T11:10:42.436Z,7.10
2023-01-10T11:13:21.734Z,7.10
2023-01-10T11:15:51.920Z,7.00
2023-01-10T11:18:22.772Z,6.90
2023-01-10T11:20:58.329Z,6.90
2023-01-10T11:23:37.599Z,6.80
2023-01-10T11:26:08.232Z,6.90
2023-01-10T11:28:39.397Z,6.90
2023-01-10T11:31:08.824Z,6.90
2023-01-10T11:33:41.161Z,7.00
2023-01-10T11:36:13.315Z,6.90
2023-01-10T11:38:42.033Z,7.00
2023-01-10T11:41:27.607Z,7.00
2023-01-10T11:44:22.533Z,7.00
2023-01-10T11:46:53.914Z,7.10
2023-01-10T11:49:29.059Z,7.00
2023-01-10T11:52:04.832Z,7.00
2023-01-10T11:54:34.959Z,7.10
2023-01-10T11:57:08.824Z,7.00
2023-01-10T11:59:39.369Z,7.10
2023-01-10T12:02:19.063Z,7.20
2023-01-10T12:04:52.298Z,7.20
2023-01-10T12:07:22.776Z,7.20
2023-01-10T12:09:58.001Z,7.20
2023-01-10T12:12:28.304Z,7.20
2023-01-10T12:14:58.914Z,7.20
2023-01-10T12:17:30.161Z,7.30
2023-01-10T12:20:01.702Z,7.30
2023-01-10T12:22:35.488Z,7.30
2023-01-10T12:25:07.974Z,7.30
2023-01-10T12:27:36.653Z,7.30
2023-01-10T12:30:09.061Z,7.30
2023-01-10T12:32:43.424Z,7.30
2023-01-10T12:35:18.717Z,7.40
2023-01-10T12:37:51.795Z,7.30
2023-01-10T12:40:27.141Z,7.20
2023-01-10T12:43:18.703Z,7.20
2023-01-10T12:45:52.524Z,7.20
2023-01-10T12:48:28.388Z,7.20
2023-01-10T12:51:01.124Z,7.10
2023-01-10T12:53:39.267Z,7.10
2023-01-10T12:56:15.199Z,7.00
2023-01-10T12:58:47.330Z,7.10
2023-01-10T13:01:21.749Z,7.20
2023-01-10T13:03:56.121Z,7.20
2023-01-10T13:06:31.907Z,7.20
2023-01-10T13:09:20.921Z,7.20
2023-01-10T13:11:56.393Z,7.20
2023-01-10T13:14:30.769Z,7.20
2023-01-10T13:17:09.208Z,7.20
2023-01-10T13:19:37.856Z,7.10
2023-01-10T13:22:24.196Z,7.10
2023-01-10T13:25:05.063Z,7.10
2023-01-10T13:27:36.048Z,7.10
2023-01-10T13:30:06.636Z,7.00
2023-01-10T13:32:38.859Z,7.00
2023-01-10T13:35:16.481Z,7.00
2023-01-10T13:37:52.065Z,7.00
2023-01-10T13:40:27.586Z,7.00
2023-01-10T13:43:42.392Z,6.90
2023-01-10T13:46:50.311Z,6.90
2023-01-10T13:49:48.801Z,6.90
2023-01-10T13:52:32.344Z,7.00
2023-01-10T13:55:04.059Z,7.00
2023-01-10T13:57:54.562Z,6.90
2023-01-10T14:00:44.238Z,7.00
2023-01-10T14:03:50.271Z,7.00
2023-01-10T14:06:41.396Z,6.90
2023-01-10T14:09:44.813Z,6.90
2023-01-10T14:12:26.710Z,6.90
2023-01-10T14:15:00.678Z,6.80
2023-01-10T14:17:31.573Z,6.80
2023-01-10T14:20:04.754Z,6.80
2023-01-10T14:22:36.373Z,6.80
2023-01-10T14:25:07.553Z,6.80
2023-01-10T14:27:48.810Z,6.80
2023-01-10T14:30:24.517Z,6.90
2023-01-10T14:32:58.012Z,6.80
2023-01-10T14:35:36.059Z,6.80
2023-01-10T14:38:06.719Z,6.80
2023-01-10T14:41:03.339Z,6.70
2023-01-10T14:43:47.395Z,6.70
2023-01-10T14:51:07.202Z,6.70
2023-01-10T14:54:16.212Z,6.60
2023-01-10T14:56:51.769Z,6.70
2023-01-10T14:59:26.397Z,6.60
2023-01-10T15:02:13.846Z,6.60
2023-01-10T15:04:54.444Z,6.60
2023-01-10T15:07:27.989Z,6.60
2023-01-10T15:09:58.621Z,6.60
2023-01-10T15:12:35.280Z,6.60
2023-01-10T15:15:08.457Z,6.60
2023-01-10T15:17:44.441Z,6.60
2023-01-10T15:20:17.108Z,6.60
2023-01-10T15:22:50.264Z,6.60
2023-01-10T15:25:32.020Z,6.50
2023-01-10T15:28:03.449Z,6.50
2023-01-10T15:30:40.908Z,6.50
2023-01-10T15:33:16.932Z,6.50
2023-01-10T15:35:48.982Z,6.40
2023-01-10T15:38:22.678Z,6.40
2023-01-10T15:41:06.369Z,6.40
2023-01-10T15:43:37.611Z,6.40
2023-01-10T15:46:07.966Z,6.40
2023-01-10T15:48:38.243Z,6.40
2023-01-10T15:51:21.828Z,6.40
2023-01-10T15:53:57.936Z,6.40
2023-01-10T15:56:30.287Z,6.40
2023-01-10T15:59:01.463Z,6.30
2023-01-10T16:01:30.671Z,6.30
2023-01-10T16:04:02.244Z,6.30
2023-01-10T16:06:33.607Z,6.30
2023-01-10T16:09:06.113Z,6.30
2023-01-10T16:11:59.205Z,6.30
2023-01-10T16:14:33.745Z,6.30
2023-01-10T16:17:02.472Z,6.30
2023-01-10T16:19:31.377Z,6.20
2023-01-10T16:22:00.943Z,6.20
2023-01-10T16:24:31.490Z,6.10
2023-01-10T16:27:03.333Z,6.20
2023-01-10T16:29:35.169Z,6.20
2023-01-10T16:32:03.966Z,6.10
2023-01-10T16:34:34.529Z,6.00
2023-01-10T16:37:05.738Z,6.00
2023-01-10T16:39:35.144Z,6.00
2023-01-10T16:42:20.989Z,5.90
2023-01-10T16:44:51.182Z,5.90
2023-01-10T16:47:22.123Z,5.70
2023-01-10T16:49:53.934Z,5.80
2023-01-10T16:52:22.701Z,5.70
2023-01-10T16:54:51.245Z,5.70
2023-01-10T16:57:24.879Z,5.70
2023-01-10T16:59:54.978Z,5.60
2023-01-10T17:02:25.048Z,5.60
2023-01-10T17:04:54.657Z,5.60
2023-01-10T17:07:23.222Z,5.60
2023-01-10T17:09:51.889Z,5.50
2023-01-10T17:12:21.109Z,5.50
2023-01-10T17:14:49.872Z,5.50
2023-01-10T17:17:19.911Z,5.40
2023-01-10T17:19:48.615Z,5.30
2023-01-10T17:22:17.595Z,5.30
2023-01-10T17:24:46.362Z,5.30
2023-01-10T17:27:15.115Z,5.30
2023-01-10T17:29:44.155Z,5.30
2023-01-10T17:32:13.048Z,5.30
2023-01-10T17:34:43.126Z,5.20
2023-01-10T17:37:11.895Z,5.20
2023-01-10T17:39:40.691Z,5.20
2023-01-10T17:42:09.575Z,5.20
2023-01-10T17:44:38.110Z,5.20
2023-01-10T17:47:06.790Z,5.20
2023-01-10T17:49:36.506Z,5.10
2023-01-10T17:52:06.651Z,5.20
2023-01-10T17:54:36.558Z,5.30
2023-01-10T17:57:05.578Z,5.30
2023-01-10T17:59:34.343Z,5.20
2023-01-10T18:02:03.223Z,5.20
2023-01-10T18:04:32.093Z,5.20
2023-01-10T18:07:00.759Z,5.20
2023-01-10T18:09:30.909Z,5.20
2023-01-10T18:11:59.442Z,5.20
2023-01-10T18:14:40.166Z,5.10
2023-01-10T18:17:11.576Z,5.20
2023-01-10T18:19:40.658Z,5.20
2023-01-10T18:22:23.049Z,5.20
2023-01-10T18:24:54.519Z,5.10
2023-01-10T18:27:23.613Z,5.20
2023-01-10T18:29:52.720Z,5.10
2023-01-10T18:32:23.844Z,5.00
2023-01-10T18:34:52.797Z,5.00
2023-01-10T18:37:21.748Z,4.90
2023-01-10T18:39:50.652Z,4.90
2023-01-10T18:42:20.814Z,4.90
2023-01-10T18:44:49.401Z,4.80
2023-01-10T18:47:17.955Z,4.80
2023-01-10T18:49:47.928Z,4.70
2023-01-10T18:52:16.931Z,4.70
2023-01-10T18:54:55.378Z,4.70
2023-01-10T18:57:25.783Z,4.70
2023-01-10T18:59:54.413Z,4.60
2023-01-10T19:02:23.095Z,4.60
2023-01-10T19:04:51.804Z,4.60
2023-01-10T19:07:20.466Z,4.70
2023-01-10T19:09:49.023Z,4.70
2023-01-10T19:12:17.954Z,4.70
2023-01-10T19:14:47.945Z,4.80
2023-01-10T19:17:18.422Z,4.80
2023-01-10T19:19:46.969Z,4.90
2023-01-10T19:22:15.549Z,5.00
2023-01-10T19:24:44.671Z,4.90
2023-01-10T19:27:13.253Z,4.90
2023-01-10T19:29:42.674Z,5.00
2023-01-10T19:32:12.813Z,5.10
2023-01-10T19:34:41.432Z,5.10
2023-01-10T19:37:10.408Z,5.10
2023-01-10T19:39:39.253Z,5.00
2023-01-10T19:42:07.808Z,5.00
2023-01-10T19:44:36.992Z,5.00
2023-01-10T19:47:06.201Z,5.00
2023-01-10T19:49:37.383Z,5.00
2023-01-10T19:52:06.468Z,4.90
2023-01-10T19:54:35.455Z,4.90
2023-01-10T19:57:04.276Z,4.80
2023-01-10T19:59:33.411Z,4.80
2023-01-10T20:02:02.382Z,4.80
2023-01-10T20:04:30.981Z,4.80
2023-01-10T20:07:01.163Z,4.80
2023-01-10T20:09:29.863Z,4.70
2023-01-10T20:11:58.526Z,4.70
2023-01-10T20:14:27.909Z,4.70
2023-01-10T20:16:56.459Z,4.70
2023-01-10T20:19:25.245Z,4.70
2023-01-10T20:21:53.825Z,4.70
2023-01-10T20:24:23.893Z,4.70
2023-01-10T20:26:53.417Z,4.70
2023-01-10T20:29:22.304Z,4.60
2023-01-10T20:31:55.820Z,4.60
2023-01-10T20:34:26.771Z,4.70
2023-01-10T20:36:57.572Z,4.60
2023-01-10T20:39:27.972Z,4.50
2023-01-10T20:41:56.598Z,4.60
2023-01-10T20:44:26.480Z,4.60
2023-01-10T20:46:56.472Z,4.60
2023-01-10T20:49:25.116Z,4.50
2023-01-10T20:51:54.559Z,4.50
2023-01-10T20:54:23.309Z,4.60
2023-01-10T20:56:53.499Z,4.50
2023-01-10T20:59:23.509Z,4.50
2023-01-10T21:01:55.006Z,4.40
2023-01-10T21:04:23.671Z,4.40
2023-01-10T21:06:52.564Z,4.40
2023-01-10T21:09:21.300Z,4.30
2023-01-10T21:12:10.587Z,4.30
2023-01-10T21:14:47.913Z,4.30
2023-01-10T21:17:16.608Z,4.30
2023-01-10T21:19:45.536Z,4.40
2023-01-10T21:22:14.119Z,4.40
2023-01-10T21:24:43.224Z,4.30
2023-01-10T21:27:13.153Z,4.30
2023-01-10T21:29:42.239Z,4.40
2023-01-10T21:32:13.336Z,4.40
2023-01-10T21:34:41.901Z,4.30
2023-01-10T21:37:10.548Z,4.20
2023-01-10T21:39:39.071Z,4.10
2023-01-10T21:42:25.316Z,4.00
2023-01-10T21:44:55.347Z,3.80
2023-01-10T21:47:24.607Z,3.80
2023-01-10T21:49:53.349Z,3.90
2023-01-10T21:52:21.974Z,3.80
2023-01-10T21:54:50.633Z,3.90
2023-01-10T21:57:22.485Z,3.80
2023-01-10T21:59:51.313Z,3.80
2023-01-10T22:02:22.923Z,3.80
2023-01-10T22:04:55.259Z,3.80
2023-01-10T22:07:25.325Z,3.80
2023-01-10T22:09:53.946Z,3.70
2023-01-10T22:12:24.499Z,3.70
2023-01-10T22:14:55.420Z,3.70
2023-01-10T22:17:25.779Z,3.60
2023-01-10T22:19:54.436Z,3.50
2023-01-10T22:22:23.053Z,3.50
2023-01-10T22:24:51.904Z,3.50
2023-01-10T22:27:20.928Z,3.20
2023-01-10T22:29:49.555Z,3.40
2023-01-10T22:32:18.170Z,3.40
2023-01-10T22:34:48.753Z,3.40
2023-01-10T22:37:17.940Z,3.40
2023-01-10T22:39:48.424Z,3.40
2023-01-10T22:42:17.239Z,3.60
2023-01-10T22:44:47.995Z,3.60
2023-01-10T22:47:16.778Z,3.50
2023-01-10T22:49:45.357Z,3.60
2023-01-10T22:52:15.632Z,3.50
2023-01-10T22:54:44.276Z,3.50
2023-01-10T22:57:14.363Z,3.50
2023-01-10T22:59:42.932Z,3.40
2023-01-10T23:02:11.454Z,3.30
2023-01-10T23:04:40.066Z,3.30
2023-01-10T23:07:08.559Z,3.30
2023-01-10T23:09:38.489Z,3.30
2023-01-10T23:12:08.501Z,3.40
2023-01-10T23:14:37.196Z,3.40
2023-01-10T23:17:05.715Z,3.40
2023-01-10T23:19:34.209Z,3.40
2023-01-10T23:22:02.716Z,3.40
2023-01-10T23:24:31.320Z,3.40
2023-01-10T23:27:01.270Z,3.50
2023-01-10T23:29:29.806Z,3.40
2023-01-10T23:31:58.373Z,3.30
2023-01-10T23:34:27.203Z,3.40
2023-01-10T23:36:55.737Z,3.40
2023-01-10T23:39:24.251Z,3.30
2023-01-10T23:41:52.831Z,3.30
2023-01-10T23:44:22.977Z,3.20
2023-01-10T23:46:51.492Z,3.20
2023-01-10T23:49:20.073Z,3.20
2023-01-10T23:51:48.735Z,3.10
2023-01-10T23:54:18.247Z,3.10
2023-01-10T23:56:46.888Z,3.10
2023-01-10T23:59:15.376Z,3.00
